createdAt,value
2019-04-23T00:00:27.751Z,0
2019-04-23T00:02:03.248Z,0
2019-04-23T00:02:53.221Z,0
2019-04-23T00:03:26.984Z,0
2019-04-23T00:04:05.404Z,0
2019-04-23T00:04:42.267Z,0
2019-04-23T00:05:35.109Z,0
2019-04-23T00:06:13.261Z,0
2019-04-23T00:06:57.201Z,0
2019-04-23T00:07:48.164Z,0
2019-04-23T00:08:16.130Z,0
2019-04-23T00:09:06.405Z,0
2019-04-23T00:09:38.262Z,0
2019-04-23T00:11:05.071Z,0
2019-04-23T00:11:45.708Z,0
2019-04-23T00:12:29.731Z,0
2019-04-23T00:12:58.223Z,0
2019-04-23T00:14:27.002Z,0
2019-04-23T00:15:07.320Z,0
2019-04-23T00:15:51.556Z,0
2019-04-23T00:17:14.819Z,0
2019-04-23T00:17:47.638Z,0
2019-04-23T00:18:36.608Z,0
2019-04-23T00:19:10.121Z,0
2019-04-23T00:19:55.030Z,0
2019-04-23T00:20:33.711Z,0
2019-04-23T00:21:20.037Z,0
2019-04-23T00:22:12.964Z,0
2019-04-23T00:22:36.359Z,0
2019-04-23T00:23:16.093Z,0
2019-04-23T00:24:09.856Z,0
2019-04-23T00:24:56.592Z,0
2019-04-23T00:25:59.102Z,0
2019-04-23T00:26:41.601Z,0
2019-04-23T00:28:06.344Z,0
2019-04-23T00:28:49.908Z,0
2019-04-23T00:29:27.570Z,0
2019-04-23T00:30:00.655Z,0
2019-04-23T00:30:47.967Z,0
2019-04-23T00:32:07.877Z,0
2019-04-23T00:32:45.955Z,0
2019-04-23T00:33:29.163Z,0
2019-04-23T00:34:08.854Z,0
2019-04-23T00:34:59.406Z,0
2019-04-23T00:35:32.243Z,0
2019-04-23T00:36:19.279Z,0
2019-04-23T00:37:01.153Z,0
2019-04-23T00:37:35.139Z,0
2019-04-23T00:38:53.862Z,0
2019-04-23T00:39:46.602Z,0
2019-04-23T00:40:25.420Z,0
2019-04-23T00:41:02.594Z,0
2019-04-23T00:41:42.388Z,0
2019-04-23T00:42:29.383Z,0
2019-04-23T00:43:08.256Z,0
2019-04-23T00:43:48.366Z,0
2019-04-23T00:44:32.009Z,0
2019-04-23T00:45:00.083Z,0
2019-04-23T00:45:48.260Z,0
2019-04-23T00:47:08.671Z,0
2019-04-23T00:48:01.556Z,0
2019-04-23T00:48:34.772Z,0
2019-04-23T00:49:19.647Z,0
2019-04-23T00:49:58.441Z,0
2019-04-23T00:51:15.604Z,0
2019-04-23T00:51:58.170Z,0
2019-04-23T00:52:38.665Z,0
2019-04-23T00:53:56.340Z,0
2019-04-23T00:54:39.023Z,0
2019-04-23T00:55:20.953Z,0
2019-04-23T00:56:11.443Z,0
2019-04-23T00:56:44.323Z,0
2019-04-23T00:57:28.877Z,0
2019-04-23T01:01:55.598Z,0
2019-04-23T01:02:36.751Z,0
2019-04-23T01:03:11.390Z,0
2019-04-23T01:04:39.464Z,0
2019-04-23T01:05:16.082Z,0
2019-04-23T01:05:52.018Z,0
2019-04-23T01:06:36.851Z,0
2019-04-23T01:07:18.202Z,0
2019-04-23T01:07:57.660Z,0
2019-04-23T01:08:35.150Z,0
2019-04-23T01:09:22.009Z,0
2019-04-23T01:10:42.881Z,0
2019-04-23T01:11:22.639Z,0
2019-04-23T01:12:05.632Z,0
2019-04-23T01:13:37.660Z,0
2019-04-23T01:14:07.953Z,0
2019-04-23T01:14:47.983Z,0
2019-04-23T01:15:32.210Z,0
2019-04-23T01:16:09.802Z,0
2019-04-23T01:16:47.667Z,0
2019-04-23T01:17:46.695Z,0
2019-04-23T01:18:17.882Z,0
2019-04-23T01:18:57.582Z,0
2019-04-23T01:20:13.941Z,0
2019-04-23T01:20:52.397Z,0
2019-04-23T01:21:15.805Z,0
2019-04-23T01:21:57.895Z,0
2019-04-23T01:22:37.933Z,0
2019-04-23T01:23:20.495Z,0
2019-04-23T01:24:04.169Z,0
2019-04-23T01:24:42.583Z,0
2019-04-23T01:25:32.709Z,0
2019-04-23T01:26:23.723Z,0
2019-04-23T01:27:21.969Z,0
2019-04-23T01:28:41.681Z,0
2019-04-23T01:29:12.439Z,0
2019-04-23T01:30:32.713Z,0
2019-04-23T01:31:14.525Z,0
2019-04-23T01:31:51.638Z,0
2019-04-23T01:32:47.842Z,0
2019-04-23T01:33:17.968Z,0
2019-04-23T01:33:55.214Z,0
2019-04-23T01:34:38.550Z,0
2019-04-23T01:35:18.746Z,0
2019-04-23T01:36:09.217Z,0
2019-04-23T01:36:35.391Z,0
2019-04-23T01:37:25.268Z,0
2019-04-23T01:38:04.318Z,0
2019-04-23T01:38:53.290Z,0
2019-04-23T01:39:27.243Z,0
2019-04-23T01:40:18.606Z,0
2019-04-23T01:40:45.568Z,0
2019-04-23T01:41:33.155Z,0
2019-04-23T01:42:22.067Z,0
2019-04-23T01:42:47.703Z,0
2019-04-23T01:43:36.364Z,0
2019-04-23T01:44:21.439Z,0
2019-04-23T01:46:35.390Z,0
2019-04-23T01:47:07.549Z,0
2019-04-23T01:47:49.442Z,0
2019-04-23T01:48:32.424Z,0
2019-04-23T01:49:11.928Z,0
2019-04-23T01:50:01.411Z,0
2019-04-23T01:50:36.242Z,0
2019-04-23T01:51:06.058Z,0
2019-04-23T01:52:51.809Z,0
2019-04-23T01:53:17.886Z,0
2019-04-23T01:53:56.529Z,0
2019-04-23T01:54:36.892Z,0
2019-04-23T01:55:25.808Z,0
2019-04-23T01:55:58.012Z,0
2019-04-23T01:56:54.597Z,0
2019-04-23T01:57:22.655Z,0
2019-04-23T01:58:20.017Z,0
2019-04-23T01:58:43.752Z,0
2019-04-23T01:59:24.307Z,0
2019-04-23T02:00:46.700Z,0
2019-04-23T02:01:31.357Z,0
2019-04-23T02:02:11.973Z,0
2019-04-23T02:03:46.413Z,0
2019-04-23T02:04:16.337Z,0
2019-04-23T02:04:51.119Z,0
2019-04-23T02:06:12.919Z,0
2019-04-23T02:06:50.342Z,0
2019-04-23T02:07:35.388Z,0
2019-04-23T02:08:12.459Z,0
2019-04-23T02:08:58.068Z,0
2019-04-23T02:09:41.623Z,0
2019-04-23T02:10:28.736Z,0
2019-04-23T02:11:36.894Z,0
2019-04-23T02:12:25.470Z,0
2019-04-23T02:13:41.856Z,0
2019-04-23T02:15:02.017Z,0
2019-04-23T02:15:47.257Z,0
2019-04-23T02:16:29.983Z,0
2019-04-23T02:17:09.603Z,0
2019-04-23T02:17:51.893Z,0
2019-04-23T02:18:30.330Z,0
2019-04-23T02:19:16.333Z,0
2019-04-23T02:19:51.083Z,0
2019-04-23T02:21:09.902Z,0
2019-04-23T02:21:57.149Z,0
2019-04-23T02:22:36.683Z,0
2019-04-23T02:23:18.139Z,0
2019-04-23T02:23:53.421Z,0
2019-04-23T02:25:24.677Z,0
2019-04-23T02:26:02.344Z,0
2019-04-23T02:26:36.675Z,0
2019-04-23T02:27:27.644Z,0
2019-04-23T02:28:04.245Z,0
2019-04-23T02:28:50.895Z,0
2019-04-23T02:29:43.304Z,0
2019-04-23T02:30:25.856Z,0
2019-04-23T02:31:20.839Z,0
2019-04-23T02:32:18.632Z,0
2019-04-23T02:33:09.938Z,0
2019-04-23T02:34:30.789Z,0
2019-04-23T02:35:08.571Z,0
2019-04-23T02:35:49.506Z,0
2019-04-23T02:36:10.794Z,0
2019-04-23T02:36:59.349Z,0
2019-04-23T02:37:53.432Z,0
2019-04-23T02:38:30.550Z,0
2019-04-23T02:39:00.255Z,0
2019-04-23T02:40:03.673Z,0
2019-04-23T02:40:37.079Z,0
2019-04-23T02:41:08.362Z,0
2019-04-23T02:41:53.593Z,0
2019-04-23T02:43:43.846Z,0
2019-04-23T02:44:31.617Z,0
2019-04-23T02:45:08.829Z,0
2019-04-23T02:46:20.584Z,0
2019-04-23T02:48:00.906Z,0
2019-04-23T02:48:30.369Z,0
2019-04-23T02:49:16.928Z,0
2019-04-23T02:50:30.681Z,0
2019-04-23T02:51:17.319Z,0
2019-04-23T02:51:58.329Z,0
2019-04-23T02:52:36.798Z,0
2019-04-23T02:54:49.889Z,0
2019-04-23T02:55:36.927Z,0
2019-04-23T02:56:50.610Z,0
2019-04-23T02:57:27.885Z,0
2019-04-23T02:58:09.763Z,0
2019-04-23T03:00:18.209Z,0
2019-04-23T03:01:06.108Z,0
2019-04-23T03:01:29.667Z,0
2019-04-23T03:02:23.693Z,0
2019-04-23T03:02:58.046Z,0
2019-04-23T03:04:16.509Z,0
2019-04-23T03:07:00.829Z,0
2019-04-23T03:08:26.541Z,0
2019-04-23T03:10:15.197Z,0
2019-04-23T03:10:30.433Z,0
2019-04-23T03:13:34.625Z,0
2019-04-23T03:14:39.729Z,0
2019-04-23T03:16:05.900Z,0
2019-04-23T03:16:45.110Z,0
2019-04-23T03:17:14.739Z,0
2019-04-23T03:18:11.304Z,0
2019-04-23T03:20:47.721Z,0
2019-04-23T03:22:01.271Z,0
2019-04-23T03:23:02.342Z,0
2019-04-23T03:24:09.058Z,0
2019-04-23T03:25:35.450Z,0
2019-04-23T03:26:13.419Z,0
2019-04-23T03:28:20.888Z,0
2019-04-23T03:28:54.992Z,0
2019-04-23T03:29:39.567Z,0
2019-04-23T03:36:08.930Z,0
2019-04-23T03:37:08.434Z,0
2019-04-23T03:38:42.778Z,0
2019-04-23T03:38:55.321Z,0
2019-04-23T03:40:16.785Z,0
2019-04-23T03:41:14.298Z,0
2019-04-23T03:43:46.181Z,0
2019-04-23T03:44:37.432Z,0
2019-04-23T03:46:11.447Z,0
2019-04-23T03:48:05.413Z,0
2019-04-23T03:49:29.670Z,0
2019-04-23T03:50:43.219Z,0
2019-04-23T03:53:02.768Z,0
2019-04-23T03:53:42.684Z,0
2019-04-23T03:54:25.681Z,0
2019-04-23T03:58:02.113Z,0
2019-04-23T03:58:42.269Z,0
2019-04-23T03:59:36.357Z,0
2019-04-23T04:01:28.910Z,0
2019-04-23T04:02:56.161Z,0
2019-04-23T04:04:20.137Z,0
2019-04-23T04:05:45.141Z,0
2019-04-23T04:20:14.968Z,5
2019-04-23T04:21:00.439Z,5
2019-04-23T04:21:33.333Z,5
2019-04-23T04:22:17.962Z,5
2019-04-23T04:23:07.099Z,5
2019-04-23T04:23:42.478Z,5
2019-04-23T04:24:47.429Z,5
2019-04-23T04:26:32.301Z,5
2019-04-23T04:26:57.710Z,5
2019-04-23T04:27:44.832Z,5
2019-04-23T04:29:08.544Z,5
2019-04-23T05:07:18.467Z,45
2019-04-23T05:08:47.742Z,50
2019-04-23T05:11:25.675Z,55
2019-04-23T05:13:11.049Z,50
2019-04-23T05:14:23.239Z,50
2019-04-23T05:14:56.627Z,50
2019-04-23T05:15:22.937Z,55
2019-04-23T05:16:05.859Z,55
2019-04-23T05:16:50.304Z,55
2019-04-23T05:17:31.868Z,50
2019-04-23T05:18:51.146Z,65
2019-04-23T05:19:50.445Z,65
2019-04-23T05:20:12.299Z,70
2019-04-23T05:20:57.873Z,55
2019-04-23T05:21:38.566Z,55
2019-04-23T05:22:13.973Z,55
2019-04-23T05:23:33.252Z,55
2019-04-23T05:24:14.676Z,50
2019-04-23T05:24:50.879Z,45
2019-04-23T05:25:31.195Z,45
2019-04-23T05:26:20.767Z,40
2019-04-23T05:26:53.091Z,40
2019-04-23T05:27:36.326Z,40
2019-04-23T05:28:59.327Z,35
2019-04-23T05:29:35.818Z,35
2019-04-23T05:30:21.141Z,35
2019-04-23T05:30:58.511Z,35
2019-04-23T05:31:32.356Z,35
2019-04-23T05:32:18.654Z,35
2019-04-23T05:33:03.717Z,35
2019-04-23T05:33:36.620Z,35
2019-04-23T05:34:20.456Z,40
2019-04-23T05:35:01.743Z,40
2019-04-23T05:36:38.763Z,40
2019-04-23T05:37:04.119Z,40
2019-04-23T05:37:58.218Z,45
2019-04-23T05:38:35.579Z,45
2019-04-23T05:39:45.298Z,50
2019-04-23T05:40:36.859Z,50
2019-04-23T05:41:16.127Z,50
2019-04-23T05:42:31.590Z,60
2019-04-23T05:43:11.638Z,60
2019-04-23T05:43:52.442Z,65
2019-04-23T05:44:38.136Z,70
2019-04-23T05:45:21.408Z,70
2019-04-23T05:46:04.201Z,70
2019-04-23T05:46:44.681Z,70
2019-04-23T05:47:26.953Z,75
2019-04-23T05:48:45.408Z,90
2019-04-23T05:49:24.604Z,100
2019-04-23T05:50:06.522Z,105
2019-04-23T05:51:35.135Z,115
2019-04-23T05:52:05.823Z,120
2019-04-23T05:52:52.581Z,130
2019-04-23T05:53:32.841Z,145
2019-04-23T05:54:12.126Z,170
2019-04-23T05:54:59.795Z,195
2019-04-23T05:55:41.540Z,225
2019-04-23T05:56:31.918Z,245
2019-04-23T05:56:54.927Z,260
2019-04-23T05:57:38.010Z,255
2019-04-23T05:58:21.824Z,230
2019-04-23T05:59:34.086Z,185
2019-04-23T06:00:23.448Z,175
2019-04-23T06:01:19.398Z,175
2019-04-23T06:02:25.470Z,185
2019-04-23T06:03:11.004Z,200
2019-04-23T06:03:48.689Z,220
2019-04-23T06:04:30.457Z,235
2019-04-23T06:05:03.120Z,240
2019-04-23T06:05:53.869Z,255
2019-04-23T06:06:37.078Z,295
2019-04-23T06:07:47.040Z,395
2019-04-23T06:08:31.864Z,440
2019-04-23T06:09:13.720Z,480
2019-04-23T06:09:51.877Z,505
2019-04-23T06:10:32.247Z,520
2019-04-23T06:11:18.296Z,520
2019-04-23T06:11:56.096Z,510
2019-04-23T06:12:50.314Z,510
2019-04-23T06:13:18.405Z,495
2019-04-23T06:14:38.524Z,455
2019-04-23T06:15:19.988Z,465
2019-04-23T06:15:57.549Z,465
2019-04-23T06:16:40.988Z,460
2019-04-23T06:17:20.765Z,460
2019-04-23T06:18:52.856Z,510
2019-04-23T06:19:41.569Z,550
2019-04-23T06:20:55.377Z,575
2019-04-23T06:22:55.823Z,610
2019-04-23T06:23:43.350Z,530
2019-04-23T06:24:20.762Z,510
2019-04-23T06:24:57.673Z,595
2019-04-23T06:25:49.235Z,625
2019-04-23T06:27:37.691Z,560
2019-04-23T06:28:20.798Z,540
2019-04-23T06:29:04.780Z,600
2019-04-23T06:29:42.770Z,600
2019-04-23T06:30:34.107Z,605
2019-04-23T06:31:06.113Z,570
2019-04-23T06:31:48.589Z,580
2019-04-23T06:32:30.912Z,480
2019-04-23T06:33:13.095Z,405
2019-04-23T06:33:53.714Z,380
2019-04-23T06:35:09.608Z,445
2019-04-23T06:35:56.854Z,465
2019-04-23T06:36:36.740Z,475
2019-04-23T06:37:15.874Z,495
2019-04-23T06:38:21.791Z,495
2019-04-23T06:39:23.180Z,520
2019-04-23T06:39:59.612Z,475
2019-04-23T06:40:40.312Z,470
2019-04-23T06:41:28.876Z,450
2019-04-23T06:42:00.159Z,415
2019-04-23T06:42:42.652Z,490
2019-04-23T06:43:31.876Z,380
2019-04-23T06:44:12.594Z,310
2019-04-23T06:44:50.857Z,280
2019-04-23T06:45:31.952Z,240
2019-04-23T06:46:19.380Z,215
2019-04-23T06:47:34.141Z,180
2019-04-23T06:48:21.600Z,200
2019-04-23T06:49:00.546Z,225
2019-04-23T06:50:19.033Z,245
2019-04-23T06:51:51.700Z,265
2019-04-23T06:52:21.158Z,270
2019-04-23T06:52:54.365Z,270
2019-04-23T06:53:56.564Z,260
2019-04-23T06:54:42.202Z,255
2019-04-23T06:55:55.230Z,280
2019-04-23T06:56:42.342Z,260
2019-04-23T06:58:04.253Z,230
2019-04-23T06:59:23.987Z,220
2019-04-23T07:01:26.856Z,210
2019-04-23T07:02:59.492Z,205
2019-04-23T07:03:37.003Z,195
2019-04-23T07:04:10.494Z,205
2019-04-23T07:04:56.577Z,195
2019-04-23T07:05:29.525Z,180
2019-04-23T07:07:04.245Z,185
2019-04-23T07:08:22.281Z,185
2019-04-23T07:09:07.684Z,185
2019-04-23T07:09:25.464Z,190
2019-04-23T07:10:18.255Z,185
2019-04-23T07:10:57.322Z,185
2019-04-23T07:11:47.286Z,185
2019-04-23T07:12:21.671Z,195
2019-04-23T07:13:10.151Z,205
2019-04-23T07:14:21.370Z,200
2019-04-23T07:15:16.209Z,200
2019-04-23T07:15:58.031Z,195
2019-04-23T07:16:27.483Z,190
2019-04-23T07:17:17.995Z,185
2019-04-23T07:17:47.532Z,180
2019-04-23T07:18:34.326Z,165
2019-04-23T07:19:23.259Z,165
2019-04-23T07:20:00.047Z,155
2019-04-23T07:20:39.790Z,150
2019-04-23T07:22:06.165Z,145
2019-04-23T07:22:42.600Z,140
2019-04-23T07:23:28.215Z,135
2019-04-23T07:24:05.083Z,125
2019-04-23T07:24:47.033Z,120
2019-04-23T07:25:21.894Z,120
2019-04-23T07:26:15.312Z,115
2019-04-23T07:26:41.676Z,115
2019-04-23T07:27:29.581Z,110
2019-04-23T07:28:12.767Z,110
2019-04-23T07:28:52.960Z,110
2019-04-23T07:29:30.653Z,110
2019-04-23T07:30:12.918Z,110
2019-04-23T07:30:59.799Z,110
2019-04-23T07:31:34.922Z,110
2019-04-23T07:32:14.918Z,110
2019-04-23T07:32:56.163Z,115
2019-04-23T07:33:43.763Z,115
2019-04-23T07:34:17.906Z,115
2019-04-23T07:35:11.449Z,120
2019-04-23T07:35:37.775Z,125
2019-04-23T07:37:04.628Z,135
2019-04-23T07:37:47.295Z,130
2019-04-23T07:38:31.100Z,125
2019-04-23T07:39:05.818Z,120
2019-04-23T07:39:56.883Z,115
2019-04-23T07:41:16.338Z,110
2019-04-23T07:41:54.629Z,110
2019-04-23T07:42:35.234Z,105
2019-04-23T07:43:14.324Z,105
2019-04-23T07:43:54.235Z,105
2019-04-23T07:45:15.649Z,100
2019-04-23T07:46:00.811Z,100
2019-04-23T07:46:40.493Z,100
2019-04-23T07:47:20.241Z,100
2019-04-23T07:48:05.859Z,100
2019-04-23T07:48:33.946Z,100
2019-04-23T07:55:25.323Z,100
2019-04-23T07:56:12.866Z,100
2019-04-23T07:56:41.692Z,100
2019-04-23T07:57:23.875Z,100
2019-04-23T07:58:06.138Z,100
2019-04-23T07:58:39.171Z,95
2019-04-23T07:59:32.848Z,95
2019-04-23T08:00:07.259Z,95
2019-04-23T08:01:26.333Z,90
2019-04-23T08:02:55.695Z,85
2019-04-23T08:03:43.312Z,85
2019-04-23T08:04:26.886Z,85
2019-04-23T08:05:48.885Z,85
2019-04-23T08:06:29.190Z,85
2019-04-23T08:07:14.180Z,85
2019-04-23T08:08:35.853Z,80
2019-04-23T08:09:23.862Z,80
2019-04-23T08:10:07.830Z,80
2019-04-23T08:11:14.053Z,80
2019-04-23T08:13:39.262Z,80
2019-04-23T08:14:07.768Z,80
2019-04-23T08:14:59.550Z,80
2019-04-23T08:26:37.836Z,75
2019-04-23T08:27:17.626Z,75
2019-04-23T08:28:04.629Z,75
2019-04-23T08:28:57.709Z,75
2019-04-23T08:29:24.768Z,75
2019-04-23T08:29:59.832Z,75
2019-04-23T08:30:45.093Z,75
2019-04-23T08:31:31.888Z,75
2019-04-23T08:32:06.661Z,75
2019-04-23T08:32:46.030Z,75
2019-04-23T08:33:23.102Z,75
2019-04-23T08:35:33.704Z,75
2019-04-23T08:36:19.930Z,75
2019-04-23T08:37:04.172Z,75
2019-04-23T08:37:53.837Z,75
2019-04-23T08:38:25.624Z,75
2019-04-23T08:39:01.909Z,75
2019-04-23T08:39:42.816Z,75
2019-04-23T08:41:16.032Z,75
2019-04-23T08:42:03.240Z,75
2019-04-23T08:43:17.030Z,75
2019-04-23T08:44:35.170Z,75
2019-04-23T08:45:14.920Z,80
2019-04-23T08:45:52.336Z,80
2019-04-23T08:46:42.576Z,80
2019-04-23T08:47:22.764Z,75
2019-04-23T08:48:00.336Z,75
2019-04-23T08:48:32.617Z,75
2019-04-23T08:49:21.641Z,75
2019-04-23T08:50:21.389Z,80
2019-04-23T08:50:37.004Z,80
2019-04-23T08:51:27.867Z,80
2019-04-23T08:52:34.499Z,80
2019-04-23T08:54:02.749Z,80
2019-04-23T08:55:00.195Z,80
2019-04-23T08:55:38.286Z,80
2019-04-23T08:56:08.562Z,80
2019-04-23T08:57:31.701Z,80
2019-04-23T08:58:18.700Z,85
2019-04-23T08:58:53.341Z,85
2019-04-23T09:00:22.882Z,85
2019-04-23T09:00:58.400Z,85
2019-04-23T09:01:45.866Z,85
2019-04-23T09:02:30.391Z,85
2019-04-23T09:03:04.297Z,85
2019-04-23T09:05:07.620Z,85
2019-04-23T09:05:52.101Z,90
2019-04-23T09:06:34.695Z,95
2019-04-23T09:07:16.393Z,95
2019-04-23T09:07:59.442Z,95
2019-04-23T09:08:36.770Z,90
2019-04-23T09:09:26.890Z,90
2019-04-23T09:10:04.226Z,90
2019-04-23T09:11:34.931Z,85
2019-04-23T09:12:06.271Z,85
2019-04-23T09:12:48.981Z,85
2019-04-23T09:13:49.801Z,90
2019-04-23T09:14:04.478Z,90
2019-04-23T09:14:50.776Z,90
2019-04-23T09:15:38.680Z,90
2019-04-23T09:16:13.229Z,90
2019-04-23T09:16:57.417Z,90
2019-04-23T09:17:40.192Z,90
2019-04-23T09:19:02.464Z,90
2019-04-23T09:19:52.989Z,85
2019-04-23T09:20:30.394Z,90
2019-04-23T09:21:01.900Z,90
2019-04-23T09:21:49.401Z,90
2019-04-23T09:22:27.826Z,90
2019-04-23T09:23:01.582Z,90
2019-04-23T09:24:32.503Z,85
2019-04-23T09:25:53.363Z,85
2019-04-23T09:26:32.583Z,85
2019-04-23T09:27:20.027Z,85
2019-04-23T09:27:59.181Z,85
2019-04-23T09:28:51.318Z,85
2019-04-23T09:29:18.882Z,85
2019-04-23T09:30:06.689Z,85
2019-04-23T09:30:38.546Z,85
2019-04-23T09:32:21.686Z,85
2019-04-23T09:32:42.021Z,85
2019-04-23T09:34:25.928Z,85
2019-04-23T09:34:58.490Z,85
2019-04-23T09:35:30.472Z,85
2019-04-23T09:36:13.068Z,85
2019-04-23T09:36:57.784Z,80
2019-04-23T09:37:40.220Z,80
2019-04-23T09:38:16.342Z,80
2019-04-23T09:38:59.642Z,80
2019-04-23T09:39:40.761Z,80
2019-04-23T09:40:41.172Z,80
2019-04-23T09:41:37.046Z,75
2019-04-23T09:42:31.701Z,75
2019-04-23T09:43:53.401Z,75
2019-04-23T09:44:47.034Z,75
2019-04-23T09:45:55.770Z,75
2019-04-23T09:46:28.689Z,75
2019-04-23T09:47:13.759Z,75
2019-04-23T09:47:56.623Z,75
2019-04-23T09:48:44.005Z,75
2019-04-23T09:49:19.952Z,75
2019-04-23T09:50:00.695Z,75
2019-04-23T09:51:22.110Z,75
2019-04-23T09:52:07.058Z,75
2019-04-23T09:52:53.978Z,70
2019-04-23T09:54:09.034Z,70
2019-04-23T09:54:54.892Z,70
2019-04-23T09:55:33.255Z,70
2019-04-23T09:56:04.568Z,70
2019-04-23T09:57:10.171Z,65
2019-04-23T09:57:33.614Z,65
2019-04-23T09:59:00.955Z,70
2019-04-23T09:59:42.844Z,70
2019-04-23T10:00:36.002Z,75
2019-04-23T10:00:58.722Z,75
2019-04-23T10:01:34.279Z,75
2019-04-23T10:02:21.422Z,70
2019-04-23T10:02:59.483Z,70
2019-04-23T10:03:38.430Z,70
2019-04-23T10:04:15.318Z,70
2019-04-23T10:04:59.394Z,70
2019-04-23T10:05:33.423Z,70
2019-04-23T10:06:12.276Z,70
2019-04-23T10:07:01.176Z,70
2019-04-23T10:07:40.450Z,70
2019-04-23T10:08:15.907Z,65
2019-04-23T10:08:53.481Z,65
2019-04-23T10:09:30.277Z,65
2019-04-23T10:10:12.127Z,65
2019-04-23T10:10:53.295Z,65
2019-04-23T10:11:32.586Z,65
2019-04-23T10:12:13.143Z,65
2019-04-23T10:12:55.727Z,65
2019-04-23T10:13:36.281Z,65
2019-04-23T10:14:16.592Z,65
2019-04-23T10:15:05.335Z,65
2019-04-23T10:15:40.928Z,65
2019-04-23T10:16:23.988Z,70
2019-04-23T10:17:03.976Z,65
2019-04-23T10:17:44.546Z,65
2019-04-23T10:18:25.084Z,65
2019-04-23T10:19:07.761Z,65
2019-04-23T10:19:48.572Z,65
2019-04-23T10:20:29.019Z,65
2019-04-23T10:21:11.069Z,65
2019-04-23T10:21:51.341Z,65
2019-04-23T10:22:34.427Z,65
2019-04-23T10:23:12.749Z,60
2019-04-23T10:23:55.013Z,60
2019-04-23T10:24:35.037Z,60
2019-04-23T10:25:15.180Z,60
2019-04-23T10:25:56.252Z,60
2019-04-23T10:26:35.812Z,60
2019-04-23T10:27:16.983Z,65
2019-04-23T10:28:00.752Z,65
2019-04-23T10:28:38.120Z,65
2019-04-23T10:29:19.986Z,65
2019-04-23T11:07:40.631Z,70
2019-04-23T11:08:30.433Z,70
2019-04-23T11:09:27.031Z,70
2019-04-23T11:09:54.545Z,70
2019-04-23T11:10:32.439Z,70
2019-04-23T11:11:21.748Z,70
2019-04-23T11:12:10.110Z,70
2019-04-23T11:13:31.197Z,70
2019-04-23T11:14:09.443Z,70
2019-04-23T11:14:49.535Z,70
2019-04-23T11:15:43.574Z,70
2019-04-23T11:16:38.422Z,70
2019-04-23T11:16:56.461Z,70
2019-04-23T11:17:37.867Z,70
2019-04-23T11:18:02.322Z,70
2019-04-23T11:21:02.695Z,70
2019-04-23T11:21:40.162Z,70
2019-04-23T11:22:53.158Z,70
2019-04-23T11:23:47.746Z,70
2019-04-23T11:24:35.483Z,65
2019-04-23T11:25:09.663Z,65
2019-04-23T11:25:42.441Z,65
2019-04-23T11:26:33.968Z,65
2019-04-23T11:27:14.482Z,65
2019-04-23T11:27:48.748Z,65
2019-04-23T11:28:32.352Z,65
2019-04-23T11:29:19.085Z,65
2019-04-23T11:29:59.443Z,65
2019-04-23T11:30:34.645Z,65
2019-04-23T11:31:23.518Z,65
2019-04-23T11:32:04.210Z,65
2019-04-23T11:37:31.233Z,65
2019-04-23T11:39:30.743Z,65
2019-04-23T11:40:07.006Z,65
2019-04-23T11:40:41.395Z,65
2019-04-23T11:41:32.080Z,65
2019-04-23T11:42:09.950Z,65
2019-04-23T11:42:57.011Z,65
2019-04-23T11:44:18.603Z,65
2019-04-23T11:44:54.917Z,65
2019-04-23T11:45:38.536Z,65
2019-04-23T11:46:39.393Z,65
2019-04-23T11:49:17.526Z,65
2019-04-23T11:50:39.224Z,65
2019-04-23T11:51:52.226Z,65
2019-04-23T11:52:35.426Z,65
2019-04-23T11:53:19.373Z,65
2019-04-23T11:53:47.532Z,65
2019-04-23T11:54:30.113Z,65
2019-04-23T11:55:25.983Z,70
2019-04-23T11:55:51.506Z,65
2019-04-23T11:57:07.517Z,65
2019-04-23T11:59:30.944Z,65
2019-04-23T12:00:03.848Z,65
2019-04-23T12:00:48.815Z,65
2019-04-23T12:01:41.754Z,65
2019-04-23T12:01:55.114Z,65
2019-04-23T12:02:49.251Z,65
2019-04-23T12:03:45.180Z,65
2019-04-23T12:05:07.505Z,65
2019-04-23T12:06:38.216Z,70
2019-04-23T12:07:07.404Z,70
2019-04-23T12:07:39.132Z,70
2019-04-23T12:08:37.592Z,65
2019-04-23T12:09:15.586Z,65
2019-04-23T12:11:38.966Z,70
2019-04-23T12:12:32.633Z,70
2019-04-23T12:13:26.084Z,70
2019-04-23T12:13:59.422Z,70
2019-04-23T12:15:31.666Z,65
2019-04-23T12:16:08.326Z,65
2019-04-23T12:16:57.057Z,65
2019-04-23T12:17:24.502Z,65
2019-04-23T12:18:07.247Z,65
2019-04-23T12:19:04.180Z,65
2019-04-23T12:19:51.946Z,65
2019-04-23T12:20:31.738Z,65
2019-04-23T12:20:47.483Z,65
2019-04-23T12:21:42.980Z,60
2019-04-23T12:22:21.029Z,65
2019-04-23T12:23:11.013Z,65
2019-04-23T12:23:54.278Z,65
2019-04-23T12:24:56.662Z,65
2019-04-23T12:25:51.340Z,65
2019-04-23T12:26:42.177Z,65
2019-04-23T12:27:23.092Z,65
2019-04-23T12:27:46.259Z,65
2019-04-23T12:28:43.720Z,65
2019-04-23T12:29:26.858Z,65
2019-04-23T12:30:07.638Z,65
2019-04-23T12:30:50.021Z,65
2019-04-23T12:31:30.806Z,65
2019-04-23T12:32:22.172Z,65
2019-04-23T12:32:53.409Z,65
2019-04-23T12:33:35.905Z,65
2019-04-23T12:34:13.665Z,65
2019-04-23T12:35:43.272Z,65
2019-04-23T12:36:21.063Z,65
2019-04-23T12:36:50.289Z,65
2019-04-23T12:39:02.403Z,65
2019-04-23T12:39:41.373Z,65
2019-04-23T12:41:20.558Z,65
2019-04-23T12:41:43.150Z,65
2019-04-23T12:43:46.958Z,60
2019-04-23T12:44:38.365Z,60
2019-04-23T12:45:26.619Z,60
2019-04-23T12:45:49.519Z,65
2019-04-23T12:47:35.949Z,65
2019-04-23T12:48:01.511Z,65
2019-04-23T12:48:46.325Z,65
2019-04-23T12:49:43.511Z,65
2019-04-23T12:52:16.571Z,65
2019-04-23T12:52:59.084Z,65
2019-04-23T12:53:39.636Z,65
2019-04-23T12:54:31.581Z,65
2019-04-23T12:55:11.823Z,65
2019-04-23T12:56:40.148Z,65
2019-04-23T12:57:16.990Z,60
2019-04-23T12:58:37.575Z,60
2019-04-23T12:59:13.891Z,60
2019-04-23T12:59:56.634Z,60
2019-04-23T13:00:36.292Z,60
2019-04-23T13:01:13.283Z,60
2019-04-23T13:02:00.929Z,60
2019-04-23T13:02:48.334Z,60
2019-04-23T13:03:25.076Z,60
2019-04-23T13:03:57.758Z,55
2019-04-23T13:04:48.270Z,55
2019-04-23T13:05:26.527Z,55
2019-04-23T13:06:07.893Z,55
2019-04-23T13:06:49.269Z,55
2019-04-23T13:07:37.873Z,55
2019-04-23T13:08:26.617Z,55
2019-04-23T13:09:12.516Z,55
2019-04-23T13:09:52.351Z,55
2019-04-23T13:10:31.832Z,50
2019-04-23T13:11:13.270Z,50
2019-04-23T13:12:19.996Z,50
2019-04-23T13:12:41.163Z,50
2019-04-23T13:13:58.065Z,50
2019-04-23T13:14:48.831Z,50
2019-04-23T13:15:22.183Z,50
2019-04-23T13:16:00.111Z,50
2019-04-23T13:16:53.234Z,50
2019-04-23T13:17:37.513Z,50
2019-04-23T13:18:22.785Z,50
2019-04-23T13:18:55.240Z,50
2019-04-23T13:19:47.252Z,50
2019-04-23T13:20:16.753Z,50
2019-04-23T13:20:52.572Z,50
2019-04-23T13:22:23.194Z,50
2019-04-23T13:23:07.961Z,50
2019-04-23T13:23:38.774Z,50
2019-04-23T13:24:15.461Z,50
2019-04-23T13:25:08.358Z,50
2019-04-23T13:25:53.767Z,50
2019-04-23T13:26:22.906Z,50
2019-04-23T13:27:19.491Z,50
2019-04-23T13:39:39.483Z,55
2019-04-23T13:40:22.574Z,60
2019-04-23T13:41:07.718Z,60
2019-04-23T13:41:38.475Z,60
2019-04-23T13:42:40.132Z,60
2019-04-23T13:43:10.729Z,60
2019-04-23T13:43:42.151Z,60
2019-04-23T13:44:30.894Z,60
2019-04-23T13:45:32.693Z,60
2019-04-23T13:46:02.689Z,60
2019-04-23T13:46:39.526Z,60
2019-04-23T13:47:27.707Z,60
2019-04-23T13:48:04.269Z,60
2019-04-23T13:48:35.455Z,60
2019-04-23T13:49:25.889Z,55
2019-04-23T13:51:30.299Z,60
2019-04-23T13:52:22.321Z,60
2019-04-23T13:53:39.239Z,60
2019-04-23T13:54:27.112Z,60
2019-04-23T13:55:07.402Z,60
2019-04-23T13:55:34.459Z,60
2019-04-23T13:56:22.260Z,60
2019-04-23T13:58:02.130Z,60
2019-04-23T13:58:26.355Z,60
2019-04-23T13:59:13.183Z,60
2019-04-23T13:59:48.134Z,60
2019-04-23T14:01:45.893Z,55
2019-04-23T14:02:36.682Z,55
2019-04-23T14:04:10.067Z,55
2019-04-23T14:04:44.495Z,55
2019-04-23T14:05:12.124Z,55
2019-04-23T14:05:59.372Z,55
2019-04-23T14:06:36.007Z,55
2019-04-23T14:07:23.064Z,55
2019-04-23T14:07:58.719Z,55
2019-04-23T14:08:46.841Z,55
2019-04-23T14:10:02.693Z,55
2019-04-23T14:10:37.638Z,55
2019-04-23T14:11:56.665Z,55
2019-04-23T14:13:36.883Z,55
2019-04-23T14:14:03.321Z,55
2019-04-23T14:14:47.381Z,55
2019-04-23T14:15:34.031Z,55
2019-04-23T14:17:31.551Z,55
2019-04-23T14:18:24.449Z,55
2019-04-23T14:18:55.816Z,55
2019-04-23T14:19:22.447Z,55
2019-04-23T14:20:06.962Z,55
2019-04-23T14:20:46.734Z,55
2019-04-23T14:22:31.008Z,55
2019-04-23T14:23:06.640Z,55
2019-04-23T14:23:43.282Z,50
2019-04-23T14:24:36.499Z,55
2019-04-23T14:25:38.640Z,50